createdAt,value
2018-06-30T00:02:57.188Z,5.00
2018-06-30T00:07:01.549Z,5.07
2018-06-30T00:11:05.822Z,5.00
2018-06-30T00:15:10.220Z,5.80
2018-06-30T00:19:14.482Z,6.60
2018-06-30T00:23:18.733Z,5.70
2018-06-30T00:27:29.395Z,4.93
2018-06-30T00:31:33.703Z,5.00
2018-06-30T00:35:38.092Z,6.40
2018-06-30T00:39:42.380Z,7.00
2018-06-30T00:43:46.578Z,5.60
2018-06-30T00:47:51.266Z,4.70
2018-06-30T00:51:55.558Z,8.27
2018-06-30T00:55:59.779Z,6.30
2018-06-30T01:00:04.251Z,5.17
2018-06-30T01:04:08.619Z,5.37
2018-06-30T01:08:12.911Z,5.20
2018-06-30T01:12:17.385Z,5.77
2018-06-30T01:16:21.668Z,6.03
2018-06-30T01:20:25.901Z,6.70
2018-06-30T01:24:30.192Z,5.80
2018-06-30T01:28:34.400Z,7.20
2018-06-30T01:32:38.880Z,7.57
2018-06-30T01:36:43.122Z,6.27
2018-06-30T01:40:47.330Z,7.23
2018-06-30T01:44:51.605Z,7.70
2018-06-30T01:48:55.839Z,6.87
2018-06-30T01:53:00.155Z,7.00
2018-06-30T01:57:04.462Z,7.10
2018-06-30T02:01:08.853Z,7.83
2018-06-30T02:05:13.240Z,7.20
2018-06-30T02:09:17.511Z,6.50
2018-06-30T02:13:21.801Z,8.43
2018-06-30T02:17:26.040Z,7.50
2018-06-30T02:21:30.290Z,6.90
2018-06-30T02:25:34.556Z,9.27
2018-06-30T02:29:39.067Z,8.53
2018-06-30T02:33:43.301Z,7.20
2018-06-30T02:37:47.553Z,8.07
2018-06-30T02:41:52.227Z,8.70
2018-06-30T02:45:56.578Z,8.23
2018-06-30T02:50:00.741Z,7.73
2018-06-30T02:54:05.124Z,8.60
2018-06-30T02:58:09.322Z,8.83
2018-06-30T03:02:13.696Z,8.50
2018-06-30T03:06:17.927Z,9.23
2018-06-30T03:10:22.137Z,7.90
2018-06-30T03:14:26.480Z,7.93
2018-06-30T03:18:30.997Z,9.87
2018-06-30T03:22:35.248Z,8.03
2018-06-30T03:26:39.544Z,9.00
2018-06-30T03:30:43.841Z,8.60
2018-06-30T03:34:48.069Z,8.00
2018-06-30T03:38:52.469Z,9.57
2018-06-30T03:42:57.020Z,9.13
2018-06-30T03:47:01.376Z,8.10
2018-06-30T03:51:05.787Z,9.57
2018-06-30T03:55:10.088Z,9.43
2018-06-30T03:59:14.452Z,8.90
2018-06-30T04:03:18.742Z,10.13
2018-06-30T04:07:23.356Z,9.47
2018-06-30T04:11:27.722Z,9.07
2018-06-30T04:15:31.974Z,7.97
2018-06-30T04:19:36.174Z,8.83
2018-06-30T04:23:40.538Z,9.50
2018-06-30T04:27:44.874Z,9.13
2018-06-30T04:31:49.136Z,9.23
2018-06-30T04:35:53.461Z,8.37
2018-06-30T04:39:57.758Z,10.03
2018-06-30T04:44:02.161Z,8.97
2018-06-30T04:48:06.503Z,7.73
2018-06-30T04:52:10.790Z,9.33
2018-06-30T04:56:15.202Z,8.30
2018-06-30T05:00:19.480Z,8.93
2018-06-30T05:04:24.214Z,9.17
2018-06-30T05:08:28.674Z,8.83
2018-06-30T05:12:32.927Z,10.17
2018-06-30T05:16:37.213Z,10.30
2018-06-30T05:20:41.552Z,9.03
2018-06-30T05:24:45.799Z,10.70
2018-06-30T05:28:50.052Z,10.00
2018-06-30T05:32:54.400Z,9.60
2018-06-30T05:36:58.835Z,13.20
2018-06-30T05:41:04.644Z,9.57
2018-06-30T05:45:10.575Z,8.60
2018-06-30T05:49:15.137Z,9.50
2018-06-30T05:53:19.473Z,8.17
2018-06-30T05:57:23.737Z,9.63
2018-06-30T06:01:28.243Z,7.60
2018-06-30T06:05:32.653Z,7.40
2018-06-30T06:09:41.405Z,6.27
2018-06-30T06:13:45.656Z,7.10
2018-06-30T06:17:50.232Z,7.03
2018-06-30T06:21:54.717Z,7.50
2018-06-30T06:25:59.055Z,6.63
2018-06-30T06:30:04.204Z,8.00
2018-06-30T06:34:08.496Z,6.77
2018-06-30T06:38:12.861Z,6.07
2018-06-30T06:42:17.123Z,5.70
2018-06-30T06:46:21.377Z,6.13
2018-06-30T06:50:25.701Z,5.87
2018-06-30T06:54:30.096Z,7.83
2018-06-30T06:58:34.370Z,6.57
2018-06-30T07:02:38.829Z,6.00
2018-06-30T07:06:43.086Z,6.95
2018-06-30T07:10:47.797Z,5.90
2018-06-30T07:14:52.046Z,5.97
2018-06-30T07:18:56.312Z,6.55
2018-06-30T07:23:00.552Z,5.80
2018-06-30T07:27:04.848Z,4.70
2018-06-30T07:31:09.485Z,6.17
2018-06-30T07:35:13.809Z,5.67
2018-06-30T07:39:18.076Z,6.10
2018-06-30T07:43:22.480Z,6.27
2018-06-30T07:47:26.873Z,5.90
2018-06-30T07:51:31.319Z,6.30
2018-06-30T07:55:35.661Z,5.30
2018-06-30T07:59:39.990Z,6.27
2018-06-30T08:03:44.408Z,5.87
2018-06-30T08:07:48.796Z,6.23
2018-06-30T08:11:53.434Z,6.37
2018-06-30T08:15:57.689Z,5.43
2018-06-30T08:20:02.098Z,6.07
2018-06-30T08:24:06.552Z,6.90
2018-06-30T08:28:10.875Z,6.20
2018-06-30T08:32:15.234Z,5.80
2018-06-30T08:36:19.516Z,5.73
2018-06-30T08:40:23.827Z,5.60
2018-06-30T08:44:28.300Z,4.70
2018-06-30T08:48:32.550Z,4.90
2018-06-30T08:52:36.828Z,4.83
2018-06-30T08:56:41.164Z,5.60
2018-06-30T09:00:45.524Z,5.47
2018-06-30T09:04:49.804Z,5.70
2018-06-30T09:08:55.206Z,5.10
2018-06-30T09:12:59.525Z,5.57
2018-06-30T09:17:03.924Z,5.73
2018-06-30T09:21:08.363Z,5.23
2018-06-30T09:25:12.876Z,5.33
2018-06-30T09:29:17.220Z,5.00
2018-06-30T09:33:21.481Z,4.70
2018-06-30T09:37:25.770Z,4.40
2018-06-30T09:41:30.134Z,5.20
2018-06-30T09:45:34.457Z,5.20
2018-06-30T09:49:38.751Z,4.50
2018-06-30T09:53:43.038Z,4.33
2018-06-30T09:57:48.340Z,4.73
2018-06-30T10:01:52.574Z,4.30
2018-06-30T10:05:56.793Z,4.57
2018-06-30T10:10:01.105Z,4.10
2018-06-30T10:14:05.397Z,4.70
2018-06-30T10:18:17.371Z,4.00
2018-06-30T10:22:21.624Z,4.03
2018-06-30T10:26:26.119Z,5.50
2018-06-30T10:30:30.451Z,3.53
2018-06-30T10:34:34.720Z,4.23
2018-06-30T10:38:38.955Z,4.30
2018-06-30T10:42:43.341Z,4.33
2018-06-30T10:46:47.615Z,4.70
2018-06-30T10:50:51.924Z,4.13
2018-06-30T10:54:56.164Z,3.80
2018-06-30T10:59:00.579Z,4.87
2018-06-30T11:03:04.998Z,4.30
2018-06-30T11:07:09.317Z,5.77
2018-06-30T11:11:14.492Z,3.77
2018-06-30T11:15:18.800Z,3.97
2018-06-30T11:19:23.113Z,4.03
2018-06-30T11:23:27.486Z,4.10
2018-06-30T11:27:31.832Z,6.40
2018-06-30T11:31:37.154Z,4.00
2018-06-30T11:35:41.443Z,4.17
2018-06-30T11:39:45.943Z,4.47
2018-06-30T11:43:53.196Z,4.63
2018-06-30T11:47:58.085Z,4.57
2018-06-30T11:52:02.617Z,3.70
2018-06-30T11:56:07.525Z,4.73
2018-06-30T12:00:12.034Z,5.10
2018-06-30T12:04:16.553Z,4.20
2018-06-30T12:08:21.340Z,4.00
2018-06-30T12:12:25.836Z,4.23
2018-06-30T12:16:30.849Z,6.33
2018-06-30T12:20:35.381Z,5.83
2018-06-30T12:24:39.986Z,9.73
2018-06-30T12:28:44.867Z,5.90
2018-06-30T12:32:49.323Z,7.60
2018-06-30T12:36:53.764Z,6.80
2018-06-30T12:40:58.184Z,6.70
2018-06-30T12:45:02.793Z,6.90
2018-06-30T12:49:07.302Z,6.77
2018-06-30T12:53:11.731Z,6.80
2018-06-30T12:57:16.676Z,6.83
2018-06-30T13:01:21.367Z,7.70
2018-06-30T13:05:25.828Z,7.63
2018-06-30T13:09:30.808Z,8.87
2018-06-30T13:13:35.284Z,7.93
2018-06-30T13:17:39.932Z,7.90
2018-06-30T13:21:44.634Z,7.40
2018-06-30T13:25:49.300Z,7.93
2018-06-30T13:29:53.709Z,8.10
2018-06-30T13:33:58.224Z,6.40
2018-06-30T13:38:02.547Z,7.00
2018-06-30T13:42:06.909Z,5.70
2018-06-30T13:46:11.382Z,6.73
2018-06-30T13:50:15.939Z,7.40
2018-06-30T13:54:20.348Z,6.33
2018-06-30T13:58:25.234Z,5.93
2018-06-30T14:02:29.561Z,6.30
2018-06-30T14:06:34.535Z,6.83
2018-06-30T14:10:39.550Z,7.30
2018-06-30T14:14:44.400Z,6.93
2018-06-30T14:18:49.316Z,7.93
2018-06-30T14:22:53.621Z,8.40
2018-06-30T14:26:59.194Z,8.17
2018-06-30T14:31:03.912Z,6.73
2018-06-30T14:35:09.218Z,7.10
2018-06-30T14:39:14.197Z,9.13
2018-06-30T14:43:19.152Z,6.03
2018-06-30T14:47:24.055Z,7.03
2018-06-30T14:51:28.769Z,7.50
2018-06-30T14:55:33.837Z,6.63
2018-06-30T14:59:38.513Z,6.47
2018-06-30T15:03:43.421Z,6.20
2018-06-30T15:07:48.092Z,7.33
2018-06-30T15:11:56.088Z,7.23
2018-06-30T15:16:00.577Z,8.30
2018-06-30T15:20:05.383Z,7.43
2018-06-30T15:24:10.278Z,7.93
2018-06-30T15:28:14.649Z,7.37
2018-06-30T15:32:19.852Z,8.30
2018-06-30T15:36:24.737Z,6.50
2018-06-30T15:40:29.633Z,7.00
2018-06-30T15:44:34.487Z,6.67
2018-06-30T15:48:39.512Z,6.50
2018-06-30T15:52:44.878Z,7.33
2018-06-30T15:56:49.229Z,6.70
2018-06-30T16:00:53.958Z,7.33
2018-06-30T16:04:58.602Z,6.93
2018-06-30T16:09:03.338Z,7.13
2018-06-30T16:13:08.105Z,6.67
2018-06-30T16:17:13.058Z,7.27
2018-06-30T16:21:17.844Z,7.47
2018-06-30T16:25:22.670Z,7.73
2018-06-30T16:29:27.526Z,7.40
2018-06-30T16:33:32.513Z,6.20
2018-06-30T16:37:37.089Z,7.60
2018-06-30T16:41:42.461Z,7.20
2018-06-30T16:45:46.769Z,7.63
2018-06-30T16:49:51.481Z,7.30
2018-06-30T16:53:56.197Z,7.40
2018-06-30T16:58:01.211Z,7.73
2018-06-30T17:02:06.176Z,6.33
2018-06-30T17:06:10.741Z,6.53
2018-06-30T17:10:15.661Z,6.87
2018-06-30T17:14:20.641Z,5.13
2018-06-30T17:18:25.155Z,6.43
2018-06-30T17:22:29.675Z,6.80
2018-06-30T17:26:35.454Z,4.60
2018-06-30T17:30:41.373Z,4.90
2018-06-30T17:34:45.801Z,4.60
2018-06-30T17:38:50.804Z,3.83
2018-06-30T17:42:55.647Z,3.10
2018-06-30T17:47:00.208Z,2.97
2018-06-30T17:51:05.176Z,2.00
2018-06-30T17:55:10.596Z,2.47
2018-06-30T17:59:15.001Z,2.40
2018-06-30T18:03:19.582Z,3.77
2018-06-30T18:07:24.050Z,1.87
2018-06-30T18:11:28.446Z,2.27
2018-06-30T18:15:33.112Z,1.90
2018-06-30T18:19:38.009Z,2.70
2018-06-30T18:23:42.807Z,1.53
2018-06-30T18:27:48.256Z,1.60
2018-06-30T18:31:53.284Z,1.60
2018-06-30T18:35:58.237Z,1.47
2018-06-30T18:40:07.704Z,1.67
2018-06-30T18:44:12.883Z,2.23
2018-06-30T18:48:18.573Z,1.47
2018-06-30T18:52:25.016Z,1.63
2018-06-30T18:56:31.661Z,1.53
2018-06-30T19:00:39.017Z,1.40
2018-06-30T19:04:43.944Z,1.70
2018-06-30T19:08:49.764Z,1.20
2018-06-30T19:12:59.101Z,1.70
2018-06-30T19:17:03.917Z,1.10
2018-06-30T19:21:09.211Z,1.97
2018-06-30T19:25:13.763Z,1.60
2018-06-30T19:29:18.509Z,1.07
2018-06-30T19:33:23.497Z,1.10
2018-06-30T19:37:28.439Z,1.10
2018-06-30T19:41:33.272Z,2.03
2018-06-30T19:45:38.009Z,9.40
2018-06-30T19:49:42.685Z,2.53
2018-06-30T19:53:47.555Z,1.20
2018-06-30T19:57:52.581Z,1.30
2018-06-30T20:01:57.732Z,0.83
2018-06-30T20:06:02.396Z,2.20
2018-06-30T20:10:06.999Z,1.60
2018-06-30T20:14:11.717Z,2.30
2018-06-30T20:18:17.177Z,0.90
2018-06-30T20:22:21.970Z,1.00
2018-06-30T20:26:26.608Z,0.80
2018-06-30T20:30:31.437Z,1.00
2018-06-30T20:34:36.521Z,1.60
2018-06-30T20:38:42.650Z,1.10
2018-06-30T20:42:48.048Z,1.33
2018-06-30T20:46:52.852Z,1.60
2018-06-30T20:50:57.421Z,1.53
2018-06-30T20:55:02.193Z,0.70
2018-06-30T20:59:06.833Z,0.63
2018-06-30T21:03:13.177Z,0.93
2018-06-30T21:07:18.098Z,0.50
2018-06-30T21:11:22.848Z,0.80
2018-06-30T21:15:27.725Z,0.80
2018-06-30T21:19:32.098Z,0.70
2018-06-30T21:23:37.356Z,0.60
2018-06-30T21:27:41.878Z,0.80
2018-06-30T21:31:46.150Z,1.70
2018-06-30T21:35:50.637Z,1.47
2018-06-30T21:39:54.969Z,1.10
2018-06-30T21:43:59.257Z,0.97
2018-06-30T21:48:03.656Z,1.23
2018-06-30T21:52:07.955Z,1.50
2018-06-30T21:56:12.249Z,0.70
2018-06-30T22:00:18.993Z,0.80
2018-06-30T22:04:24.373Z,7.37
2018-06-30T22:08:28.611Z,0.93
2018-06-30T22:12:33.046Z,1.17
2018-06-30T22:16:37.281Z,2.00
2018-06-30T22:20:41.681Z,1.97
2018-06-30T22:24:45.957Z,0.97
2018-06-30T22:28:50.181Z,1.50
2018-06-30T22:32:54.587Z,0.80
2018-06-30T22:36:58.908Z,1.10
2018-06-30T22:41:03.091Z,0.80
2018-06-30T22:45:07.621Z,1.10
2018-06-30T22:49:11.859Z,0.50
2018-06-30T22:53:16.145Z,1.43
2018-06-30T22:57:20.521Z,1.27
2018-06-30T23:01:24.857Z,2.23
2018-06-30T23:05:29.251Z,0.97
2018-06-30T23:09:33.491Z,0.60
2018-06-30T23:13:37.731Z,1.40
2018-06-30T23:17:42.192Z,1.80
2018-06-30T23:21:46.530Z,0.70
2018-06-30T23:25:50.801Z,0.80
2018-06-30T23:29:55.076Z,0.93
2018-06-30T23:33:59.277Z,1.00
2018-06-30T23:38:04.297Z,1.13
2018-06-30T23:42:08.627Z,0.60
2018-06-30T23:46:12.909Z,11.10
2018-06-30T23:50:17.395Z,0.83
2018-06-30T23:54:21.640Z,0.87
2018-06-30T23:58:25.917Z,1.10
